Aviation Digital Data Service (ADDS)

Output produced by TAFs form (2308 UTC 15 July 2018)
found at http://www.aviationweather.gov/adds/tafs/
 
METAR text: RJDT 152230Z VRB02KT CAVOK 26/23 Q1013
Conditions at: RJDT (TSUSHIMA AIRPORT, JP) observed 2230 UTC 15 July 2018
Temperature: 26.0°C (79°F)
Dewpoint: 23.0°C (73°F) [RH = 84%]
Pressure (altimeter): 29.91 inches Hg (1013.0 mb)
Winds: variable direction winds at 2 MPH (2 knots; 1.0 m/s)
Visibility: 6 or more miles (10+ km)
Ceiling: ceiling and visibility are OK
Clouds: unknown
Weather: no significant weather observed at this time